< < Back
Terminal Aerodrome Forecast


Current Version              Previous Versions:   1  2  3  4  5  6  7  8  9  

Terminal Aerodrome Forecast

964
FTUS44 KMRX 032320
TAFTYS
TAF
KTYS 032320Z 0400/0424 24004KT P6SM FEW050 SCT200
     FM040300 VRB03KT P6SM FEW150
     FM041500 24008KT P6SM SCT050=



Latest METAR

861
SAUS80 KWBC 041200 RRD
MTRTYS
METAR KTYS 041153Z 00000KT 10SM FEW250 13/11 A3026 RMK AO2 SLP240
T01280106 10156 20111 53022


USA.gov is the U.S. government's official web portal to all federal, state and local government web resources and services.